sensor_id;sensor_type;location;lat;lon;timestamp;pressure;altitude;pressure_sealevel;temperature;humidity
47985;BME280;33753;52.912;-7.342;2023-02-23T00:01:54;101112.47;;;1.71;100.00
47985;BME280;33753;52.912;-7.342;2023-02-23T00:04:23;101110.78;;;1.70;100.00
47985;BME280;33753;52.912;-7.342;2023-02-23T00:06:52;101113.75;;;1.66;100.00
47985;BME280;33753;52.912;-7.342;2023-02-23T00:09:20;101111.94;;;1.66;100.00
47985;BME280;33753;52.912;-7.342;2023-02-23T00:11:54;101121.75;;;1.66;100.00
47985;BME280;33753;52.912;-7.342;2023-02-23T00:14:25;101117.72;;;1.59;100.00
47985;BME280;33753;52.912;-7.342;2023-02-23T00:16:54;101107.06;;;1.59;100.00
47985;BME280;33753;52.912;-7.342;2023-02-23T00:19:22;101107.63;;;1.64;100.00
47985;BME280;33753;52.912;-7.342;2023-02-23T00:21:52;101101.72;;;1.59;100.00
47985;BME280;33753;52.912;-7.342;2023-02-23T00:24:20;101109.56;;;1.62;100.00
47985;BME280;33753;52.912;-7.342;2023-02-23T00:26:48;101108.47;;;1.64;100.00
47985;BME280;33753;52.912;-7.342;2023-02-23T00:29:17;101111.16;;;1.64;100.00
47985;BME280;33753;52.912;-7.342;2023-02-23T00:31:47;101117.56;;;1.62;100.00
47985;BME280;33753;52.912;-7.342;2023-02-23T00:34:17;101111.09;;;1.66;100.00
47985;BME280;33753;52.912;-7.342;2023-02-23T00:36:48;101119.09;;;1.66;100.00
47985;BME280;33753;52.912;-7.342;2023-02-23T00:39:17;101115.63;;;1.64;100.00
47985;BME280;33753;52.912;-7.342;2023-02-23T00:41:49;101123.34;;;1.68;100.00
47985;BME280;33753;52.912;-7.342;2023-02-23T00:44:18;101120.66;;;1.68;100.00
47985;BME280;33753;52.912;-7.342;2023-02-23T00:46:51;101120.78;;;1.67;100.00
47985;BME280;33753;52.912;-7.342;2023-02-23T00:49:20;101117.56;;;1.62;100.00
47985;BME280;33753;52.912;-7.342;2023-02-23T00:51:48;101124.78;;;1.60;100.00
47985;BME280;33753;52.912;-7.342;2023-02-23T00:54:18;101116.25;;;1.54;100.00
47985;BME280;33753;52.912;-7.342;2023-02-23T00:56:47;101114.50;;;1.53;100.00
47985;BME280;33753;52.912;-7.342;2023-02-23T00:59:16;101110.22;;;1.51;100.00
47985;BME280;33753;52.912;-7.342;2023-02-23T01:01:44;101117.59;;;1.47;100.00
47985;BME280;33753;52.912;-7.342;2023-02-23T01:04:14;101118.53;;;1.46;100.00
47985;BME280;33753;52.912;-7.342;2023-02-23T01:06:42;101119.56;;;1.44;100.00
47985;BME280;33753;52.912;-7.342;2023-02-23T01:09:13;101120.50;;;1.43;100.00
47985;BME280;33753;52.912;-7.342;2023-02-23T01:11:41;101129.38;;;1.43;100.00
47985;BME280;33753;52.912;-7.342;2023-02-23T01:14:13;101133.00;;;1.42;100.00
47985;BME280;33753;52.912;-7.342;2023-02-23T01:16:41;101138.31;;;1.42;100.00
47985;BME280;33753;52.912;-7.342;2023-02-23T01:19:10;101136.81;;;1.38;100.00
47985;BME280;33753;52.912;-7.342;2023-02-23T01:21:43;101144.16;;;1.34;100.00
47985;BME280;33753;52.912;-7.342;2023-02-23T01:24:11;101152.22;;;1.33;100.00
47985;BME280;33753;52.912;-7.342;2023-02-23T01:26:40;101144.22;;;1.33;100.00
47985;BME280;33753;52.912;-7.342;2023-02-23T01:29:10;101147.84;;;1.32;100.00
47985;BME280;33753;52.912;-7.342;2023-02-23T01:31:40;101146.03;;;1.32;100.00
47985;BME280;33753;52.912;-7.342;2023-02-23T01:34:09;101149.47;;;1.34;100.00
47985;BME280;33753;52.912;-7.342;2023-02-23T01:36:38;101158.31;;;1.35;100.00
47985;BME280;33753;52.912;-7.342;2023-02-23T01:39:10;101148.50;;;1.35;100.00
47985;BME280;33753;52.912;-7.342;2023-02-23T01:41:40;101160.97;;;1.35;100.00
47985;BME280;33753;52.912;-7.342;2023-02-23T01:46:54;101160.03;;;1.36;100.00
47985;BME280;33753;52.912;-7.342;2023-02-23T01:49:23;101166.59;;;1.30;100.00
47985;BME280;33753;52.912;-7.342;2023-02-23T01:51:53;101162.03;;;1.32;100.00
47985;BME280;33753;52.912;-7.342;2023-02-23T01:54:25;101169.91;;;1.34;100.00
47985;BME280;33753;52.912;-7.342;2023-02-23T01:56:55;101176.19;;;1.33;100.00
47985;BME280;33753;52.912;-7.342;2023-02-23T01:59:26;101179.75;;;1.33;100.00
47985;BME280;33753;52.912;-7.342;2023-02-23T02:01:55;101178.69;;;1.36;100.00
47985;BME280;33753;52.912;-7.342;2023-02-23T02:04:24;101191.34;;;1.32;100.00
47985;BME280;33753;52.912;-7.342;2023-02-23T02:06:53;101188.59;;;1.34;100.00
47985;BME280;33753;52.912;-7.342;2023-02-23T02:09:23;101194.09;;;1.31;100.00
47985;BME280;33753;52.912;-7.342;2023-02-23T02:11:54;101192.97;;;1.35;100.00
47985;BME280;33753;52.912;-7.342;2023-02-23T02:14:22;101199.06;;;1.37;100.00
47985;BME280;33753;52.912;-7.342;2023-02-23T02:17:10;101186.84;;;1.33;100.00
47985;BME280;33753;52.912;-7.342;2023-02-23T02:22:38;101197.72;;;1.30;100.00
47985;BME280;33753;52.912;-7.342;2023-02-23T02:28:08;101199.81;;;1.25;100.00
47985;BME280;33753;52.912;-7.342;2023-02-23T02:39:11;101204.66;;;1.18;100.00
47985;BME280;33753;52.912;-7.342;2023-02-23T02:41:51;101207.78;;;1.10;100.00
47985;BME280;33753;52.912;-7.342;2023-02-23T02:44:24;101214.06;;;1.09;100.00
47985;BME280;33753;52.912;-7.342;2023-02-23T02:46:56;101209.84;;;1.05;100.00
47985;BME280;33753;52.912;-7.342;2023-02-23T02:49:28;101210.59;;;1.07;100.00
47985;BME280;33753;52.912;-7.342;2023-02-23T02:51:59;101210.69;;;1.06;100.00
47985;BME280;33753;52.912;-7.342;2023-02-23T02:54:35;101205.75;;;0.99;100.00
47985;BME280;33753;52.912;-7.342;2023-02-23T02:57:05;101209.34;;;0.98;100.00
47985;BME280;33753;52.912;-7.342;2023-02-23T02:59:41;101217.63;;;0.94;100.00
47985;BME280;33753;52.912;-7.342;2023-02-23T03:02:30;101218.84;;;0.88;100.00
47985;BME280;33753;52.912;-7.342;2023-02-23T03:05:17;101223.50;;;0.84;100.00
47985;BME280;33753;52.912;-7.342;2023-02-23T03:08:07;101220.25;;;0.79;100.00
47985;BME280;33753;52.912;-7.342;2023-02-23T03:10:58;101224.72;;;0.79;100.00
47985;BME280;33753;52.912;-7.342;2023-02-23T03:13:47;101232.72;;;0.79;100.00
47985;BME280;33753;52.912;-7.342;2023-02-23T03:16:42;101237.44;;;0.74;100.00
47985;BME280;33753;52.912;-7.342;2023-02-23T03:19:33;101241.13;;;0.71;100.00
47985;BME280;33753;52.912;-7.342;2023-02-23T03:22:21;101243.78;;;0.71;100.00
47985;BME280;33753;52.912;-7.342;2023-02-23T03:25:08;101239.34;;;0.72;100.00
47985;BME280;33753;52.912;-7.342;2023-02-23T03:28:00;101246.63;;;0.68;100.00
47985;BME280;33753;52.912;-7.342;2023-02-23T03:30:50;101245.09;;;0.64;100.00
47985;BME280;33753;52.912;-7.342;2023-02-23T03:33:40;101241.66;;;0.62;100.00
47985;BME280;33753;52.912;-7.342;2023-02-23T03:36:30;101245.63;;;0.55;100.00
47985;BME280;33753;52.912;-7.342;2023-02-23T03:39:20;101237.97;;;0.48;100.00
47985;BME280;33753;52.912;-7.342;2023-02-23T03:42:10;101244.59;;;0.41;100.00
47985;BME280;33753;52.912;-7.342;2023-02-23T03:45:00;101249.34;;;0.36;100.00
47985;BME280;33753;52.912;-7.342;2023-02-23T03:47:49;101257.50;;;0.33;100.00
47985;BME280;33753;52.912;-7.342;2023-02-23T03:50:38;101250.44;;;0.32;100.00
47985;BME280;33753;52.912;-7.342;2023-02-23T03:53:26;101262.19;;;0.28;100.00
47985;BME280;33753;52.912;-7.342;2023-02-23T03:56:14;101256.69;;;0.31;100.00
47985;BME280;33753;52.912;-7.342;2023-02-23T03:59:01;101271.56;;;0.35;100.00
47985;BME280;33753;52.912;-7.342;2023-02-23T04:01:49;101263.41;;;0.38;100.00
47985;BME280;33753;52.912;-7.342;2023-02-23T04:04:37;101280.16;;;0.40;100.00
47985;BME280;33753;52.912;-7.342;2023-02-23T04:07:23;101285.31;;;0.43;100.00
47985;BME280;33753;52.912;-7.342;2023-02-23T04:10:10;101269.25;;;0.45;100.00
47985;BME280;33753;52.912;-7.342;2023-02-23T04:12:57;101286.06;;;0.45;100.00
47985;BME280;33753;52.912;-7.342;2023-02-23T04:15:48;101284.34;;;0.44;100.00
47985;BME280;33753;52.912;-7.342;2023-02-23T04:18:19;101280.06;;;0.42;100.00
47985;BME280;33753;52.912;-7.342;2023-02-23T04:20:49;101295.16;;;0.41;100.00
47985;BME280;33753;52.912;-7.342;2023-02-23T04:23:17;101279.53;;;0.35;100.00
47985;BME280;33753;52.912;-7.342;2023-02-23T04:25:48;101297.22;;;0.36;100.00
47985;BME280;33753;52.912;-7.342;2023-02-23T04:28:18;101289.47;;;0.31;100.00
47985;BME280;33753;52.912;-7.342;2023-02-23T04:30:46;101285.78;;;0.34;100.00
47985;BME280;33753;52.912;-7.342;2023-02-23T04:33:14;101295.59;;;0.33;100.00
47985;BME280;33753;52.912;-7.342;2023-02-23T04:35:44;101293.97;;;0.31;100.00
47985;BME280;33753;52.912;-7.342;2023-02-23T04:38:12;101295.84;;;0.29;100.00
47985;BME280;33753;52.912;-7.342;2023-02-23T04:40:41;101289.56;;;0.30;100.00
47985;BME280;33753;52.912;-7.342;2023-02-23T04:43:09;101294.66;;;0.34;100.00
47985;BME280;33753;52.912;-7.342;2023-02-23T04:45:39;101292.09;;;0.33;100.00
47985;BME280;33753;52.912;-7.342;2023-02-23T04:48:07;101291.72;;;0.39;100.00
47985;BME280;33753;52.912;-7.342;2023-02-23T04:50:35;101293.28;;;0.43;100.00
47985;BME280;33753;52.912;-7.342;2023-02-23T04:53:05;101290.53;;;0.45;100.00
47985;BME280;33753;52.912;-7.342;2023-02-23T04:55:33;101298.44;;;0.46;100.00
47985;BME280;33753;52.912;-7.342;2023-02-23T04:58:02;101302.72;;;0.49;100.00
47985;BME280;33753;52.912;-7.342;2023-02-23T05:00:30;101292.94;;;0.49;100.00
47985;BME280;33753;52.912;-7.342;2023-02-23T05:02:59;101293.88;;;0.48;100.00
47985;BME280;33753;52.912;-7.342;2023-02-23T05:05:28;101291.22;;;0.48;100.00
47985;BME280;33753;52.912;-7.342;2023-02-23T05:07:57;101292.25;;;0.46;100.00
47985;BME280;33753;52.912;-7.342;2023-02-23T05:10:27;101292.31;;;0.44;100.00
47985;BME280;33753;52.912;-7.342;2023-02-23T05:12:56;101287.97;;;0.43;100.00
47985;BME280;33753;52.912;-7.342;2023-02-23T05:15:25;101279.19;;;0.41;100.00
47985;BME280;33753;52.912;-7.342;2023-02-23T05:17:53;101276.63;;;0.40;100.00
47985;BME280;33753;52.912;-7.342;2023-02-23T05:20:22;101274.03;;;0.38;100.00
47985;BME280;33753;52.912;-7.342;2023-02-23T05:22:50;101269.84;;;0.34;100.00
47985;BME280;33753;52.912;-7.342;2023-02-23T05:25:18;101272.66;;;0.31;100.00
47985;BME280;33753;52.912;-7.342;2023-02-23T05:27:48;101278.16;;;0.28;100.00
47985;BME280;33753;52.912;-7.342;2023-02-23T05:30:16;101277.41;;;0.26;100.00
47985;BME280;33753;52.912;-7.342;2023-02-23T05:32:44;101284.78;;;0.21;100.00
47985;BME280;33753;52.912;-7.342;2023-02-23T05:35:13;101285.88;;;0.16;100.00
47985;BME280;33753;52.912;-7.342;2023-02-23T05:37:41;101284.50;;;0.09;100.00
47985;BME280;33753;52.912;-7.342;2023-02-23T05:40:10;101277.78;;;0.02;100.00
47985;BME280;33753;52.912;-7.342;2023-02-23T05:42:39;101272.72;;;-0.03;100.00
47985;BME280;33753;52.912;-7.342;2023-02-23T05:45:08;101271.25;;;-0.08;100.00
47985;BME280;33753;52.912;-7.342;2023-02-23T05:47:37;101269.69;;;-0.12;100.00
47985;BME280;33753;52.912;-7.342;2023-02-23T05:50:06;101275.38;;;-0.19;100.00
47985;BME280;33753;52.912;-7.342;2023-02-23T05:52:35;101269.25;;;-0.21;100.00
47985;BME280;33753;52.912;-7.342;2023-02-23T05:55:04;101271.16;;;-0.23;100.00
47985;BME280;33753;52.912;-7.342;2023-02-23T05:57:33;101273.00;;;-0.25;100.00
47985;BME280;33753;52.912;-7.342;2023-02-23T06:00:01;101275.06;;;-0.30;100.00
47985;BME280;33753;52.912;-7.342;2023-02-23T06:02:31;101272.78;;;-0.38;100.00
47985;BME280;33753;52.912;-7.342;2023-02-23T06:05:00;101274.59;;;-0.38;100.00
47985;BME280;33753;52.912;-7.342;2023-02-23T06:07:28;101270.38;;;-0.42;100.00
47985;BME280;33753;52.912;-7.342;2023-02-23T06:09:56;101282.28;;;-0.49;100.00
47985;BME280;33753;52.912;-7.342;2023-02-23T06:12:25;101282.44;;;-0.53;100.00
47985;BME280;33753;52.912;-7.342;2023-02-23T06:14:53;101280.88;;;-0.57;100.00
47985;BME280;33753;52.912;-7.342;2023-02-23T06:17:21;101286.19;;;-0.57;100.00
47985;BME280;33753;52.912;-7.342;2023-02-23T06:19:51;101289.03;;;-0.60;100.00
47985;BME280;33753;52.912;-7.342;2023-02-23T06:22:20;101282.81;;;-0.60;100.00
47985;BME280;33753;52.912;-7.342;2023-02-23T06:24:48;101286.53;;;-0.63;100.00
47985;BME280;33753;52.912;-7.342;2023-02-23T06:27:16;101290.13;;;-0.64;100.00
47985;BME280;33753;52.912;-7.342;2023-02-23T06:29:45;101293.69;;;-0.65;100.00
47985;BME280;33753;52.912;-7.342;2023-02-23T06:32:13;101292.69;;;-0.62;100.00
47985;BME280;33753;52.912;-7.342;2023-02-23T06:34:46;101295.25;;;-0.61;100.00
47985;BME280;33753;52.912;-7.342;2023-02-23T06:37:16;101305.91;;;-0.61;100.00
47985;BME280;33753;52.912;-7.342;2023-02-23T06:39:44;101312.53;;;-0.70;100.00
47985;BME280;33753;52.912;-7.342;2023-02-23T06:42:12;101311.97;;;-0.76;100.00
47985;BME280;33753;52.912;-7.342;2023-02-23T06:44:41;101312.47;;;-0.85;100.00
47985;BME280;33753;52.912;-7.342;2023-02-23T06:47:09;101315.41;;;-0.92;100.00
47985;BME280;33753;52.912;-7.342;2023-02-23T06:49:37;101305.84;;;-0.96;100.00
47985;BME280;33753;52.912;-7.342;2023-02-23T06:52:06;101303.28;;;-0.97;100.00
47985;BME280;33753;52.912;-7.342;2023-02-23T06:54:36;101312.22;;;-0.98;100.00
47985;BME280;33753;52.912;-7.342;2023-02-23T06:57:05;101321.25;;;-1.02;100.00
47985;BME280;33753;52.912;-7.342;2023-02-23T06:59:34;101325.91;;;-1.08;100.00
47985;BME280;33753;52.912;-7.342;2023-02-23T07:02:03;101327.88;;;-1.11;100.00
47985;BME280;33753;52.912;-7.342;2023-02-23T07:04:32;101329.88;;;-1.16;100.00
47985;BME280;33753;52.912;-7.342;2023-02-23T07:07:00;101329.03;;;-1.17;100.00
47985;BME280;33753;52.912;-7.342;2023-02-23T07:09:29;101333.47;;;-1.17;100.00
47985;BME280;33753;52.912;-7.342;2023-02-23T07:11:59;101338.78;;;-1.17;100.00
47985;BME280;33753;52.912;-7.342;2023-02-23T07:14:28;101338.78;;;-1.17;100.00
47985;BME280;33753;52.912;-7.342;2023-02-23T07:16:56;101337.34;;;-1.25;100.00
47985;BME280;33753;52.912;-7.342;2023-02-23T07:19:24;101351.00;;;-1.32;100.00
47985;BME280;33753;52.912;-7.342;2023-02-23T07:21:53;101357.63;;;-1.41;100.00
47985;BME280;33753;52.912;-7.342;2023-02-23T07:24:21;101363.19;;;-1.47;100.00
47985;BME280;33753;52.912;-7.342;2023-02-23T07:26:49;101361.63;;;-1.51;100.00
47985;BME280;33753;52.912;-7.342;2023-02-23T07:29:19;101361.50;;;-1.48;100.00
47985;BME280;33753;52.912;-7.342;2023-02-23T07:31:49;101362.25;;;-1.46;100.00
47985;BME280;33753;52.912;-7.342;2023-02-23T07:34:18;101354.22;;;-1.45;100.00
47985;BME280;33753;52.912;-7.342;2023-02-23T07:36:46;101363.06;;;-1.44;100.00
47985;BME280;33753;52.912;-7.342;2023-02-23T07:39:15;101373.69;;;-1.44;100.00
47985;BME280;33753;52.912;-7.342;2023-02-23T07:41:43;101379.84;;;-1.44;100.00
47985;BME280;33753;52.912;-7.342;2023-02-23T07:44:16;101382.41;;;-1.42;100.00
47985;BME280;33753;52.912;-7.342;2023-02-23T07:46:46;101387.72;;;-1.42;100.00
47985;BME280;33753;52.912;-7.342;2023-02-23T07:49:15;101389.31;;;-1.38;100.00
47985;BME280;33753;52.912;-7.342;2023-02-23T07:51:43;101392.53;;;-1.31;100.00
47985;BME280;33753;52.912;-7.342;2023-02-23T07:54:11;101388.75;;;-1.26;100.00
47985;BME280;33753;52.912;-7.342;2023-02-23T07:56:40;101382.13;;;-1.17;100.00
47985;BME280;33753;52.912;-7.342;2023-02-23T07:59:09;101391.59;;;-1.11;100.00
47985;BME280;33753;52.912;-7.342;2023-02-23T08:01:37;101397.84;;;-1.12;100.00
47985;BME280;33753;52.912;-7.342;2023-02-23T08:04:07;101409.53;;;-1.16;100.00
47985;BME280;33753;52.912;-7.342;2023-02-23T08:06:35;101409.38;;;-1.13;100.00
47985;BME280;33753;52.912;-7.342;2023-02-23T08:09:04;101408.22;;;-1.08;100.00
47985;BME280;33753;52.912;-7.342;2023-02-23T08:11:33;101410.81;;;-1.06;100.00
47985;BME280;33753;52.912;-7.342;2023-02-23T08:14:01;101414.28;;;-1.04;100.00
47985;BME280;33753;52.912;-7.342;2023-02-23T08:16:31;101407.81;;;-0.98;100.00
47985;BME280;33753;52.912;-7.342;2023-02-23T08:19:07;101407.50;;;-0.92;100.00
47985;BME280;33753;52.912;-7.342;2023-02-23T08:21:36;101409.84;;;-0.86;100.00
47985;BME280;33753;52.912;-7.342;2023-02-23T08:24:05;101401.69;;;-0.81;100.00
47985;BME280;33753;52.912;-7.342;2023-02-23T08:26:34;101402.22;;;-0.75;100.00
47985;BME280;33753;52.912;-7.342;2023-02-23T08:29:07;101412.50;;;-0.67;100.00
47985;BME280;33753;52.912;-7.342;2023-02-23T08:31:38;101408.75;;;-0.63;100.00
47985;BME280;33753;52.912;-7.342;2023-02-23T08:34:08;101413.75;;;-0.57;100.00
47985;BME280;33753;52.912;-7.342;2023-02-23T08:36:40;101411.56;;;-0.48;100.00
47985;BME280;33753;52.912;-7.342;2023-02-23T08:39:12;101416.41;;;-0.39;100.00
47985;BME280;33753;52.912;-7.342;2023-02-23T08:41:44;101425.78;;;-0.32;100.00
47985;BME280;33753;52.912;-7.342;2023-02-23T08:44:13;101434.50;;;-0.28;100.00
47985;BME280;33753;52.912;-7.342;2023-02-23T08:46:42;101434.09;;;-0.21;100.00
47985;BME280;33753;52.912;-7.342;2023-02-23T08:49:13;101427.53;;;-0.13;100.00
47985;BME280;33753;52.912;-7.342;2023-02-23T08:51:42;101434.16;;;-0.05;100.00
47985;BME280;33753;52.912;-7.342;2023-02-23T08:54:13;101436.38;;;0.05;100.00
47985;BME280;33753;52.912;-7.342;2023-02-23T08:56:44;101439.50;;;0.13;100.00
47985;BME280;33753;52.912;-7.342;2023-02-23T08:59:13;101435.63;;;0.19;100.00
47985;BME280;33753;52.912;-7.342;2023-02-23T09:01:41;101442.22;;;0.29;100.00
47985;BME280;33753;52.912;-7.342;2023-02-23T09:04:10;101436.28;;;0.40;100.00
47985;BME280;33753;52.912;-7.342;2023-02-23T09:06:39;101457.31;;;0.62;100.00
47985;BME280;33753;52.912;-7.342;2023-02-23T09:09:08;101457.25;;;0.79;100.00
47985;BME280;33753;52.912;-7.342;2023-02-23T09:11:36;101461.84;;;1.09;100.00
47985;BME280;33753;52.912;-7.342;2023-02-23T09:14:04;101459.25;;;1.40;100.00
47985;BME280;33753;52.912;-7.342;2023-02-23T09:16:34;101466.66;;;1.81;100.00
47985;BME280;33753;52.912;-7.342;2023-02-23T09:19:02;101467.66;;;2.24;100.00
47985;BME280;33753;52.912;-7.342;2023-02-23T09:21:31;101460.13;;;2.46;100.00
47985;BME280;33753;52.912;-7.342;2023-02-23T09:24:01;101461.56;;;2.80;100.00
47985;BME280;33753;52.912;-7.342;2023-02-23T09:26:30;101467.09;;;3.06;100.00
47985;BME280;33753;52.912;-7.342;2023-02-23T09:29:00;101465.13;;;3.22;100.00
47985;BME280;33753;52.912;-7.342;2023-02-23T09:31:28;101461.34;;;3.39;100.00
47985;BME280;33753;52.912;-7.342;2023-02-23T09:33:57;101462.50;;;3.62;100.00
47985;BME280;33753;52.912;-7.342;2023-02-23T09:36:27;101470.72;;;3.87;100.00
47985;BME280;33753;52.912;-7.342;2023-02-23T09:38:57;101458.16;;;4.14;100.00
47985;BME280;33753;52.912;-7.342;2023-02-23T09:41:45;101466.09;;;4.67;100.00
47985;BME280;33753;52.912;-7.342;2023-02-23T09:44:20;101469.16;;;5.37;100.00
47985;BME280;33753;52.912;-7.342;2023-02-23T09:46:54;101460.59;;;6.16;100.00
47985;BME280;33753;52.912;-7.342;2023-02-23T09:49:27;101445.78;;;6.80;100.00
47985;BME280;33753;52.912;-7.342;2023-02-23T09:51:57;101438.56;;;7.58;100.00
47985;BME280;33753;52.912;-7.342;2023-02-23T09:54:28;101428.72;;;8.31;100.00
47985;BME280;33753;52.912;-7.342;2023-02-23T09:56:58;101421.53;;;8.94;100.00
47985;BME280;33753;52.912;-7.342;2023-02-23T09:59:29;101410.84;;;9.52;100.00
47985;BME280;33753;52.912;-7.342;2023-02-23T10:01:59;101399.75;;;9.95;100.00
47985;BME280;33753;52.912;-7.342;2023-02-23T10:04:32;101370.84;;;10.15;100.00
47985;BME280;33753;52.912;-7.342;2023-02-23T10:07:05;101362.41;;;10.28;100.00
47985;BME280;33753;52.912;-7.342;2023-02-23T10:09:42;101353.84;;;10.42;100.00
47985;BME280;33753;52.912;-7.342;2023-02-23T10:12:16;101339.03;;;10.46;100.00
47985;BME280;33753;52.912;-7.342;2023-02-23T10:14:53;101344.22;;;10.85;100.00
47985;BME280;33753;52.912;-7.342;2023-02-23T10:17:25;101329.31;;;10.99;100.00
47985;BME280;33753;52.912;-7.342;2023-02-23T10:19:58;101325.84;;;11.07;100.00
47985;BME280;33753;52.912;-7.342;2023-02-23T10:22:30;101331.75;;;11.20;100.00
47985;BME280;33753;52.912;-7.342;2023-02-23T10:25:01;101322.44;;;11.41;100.00
47985;BME280;33753;52.912;-7.342;2023-02-23T10:27:35;101315.88;;;11.44;100.00
47985;BME280;33753;52.912;-7.342;2023-02-23T10:30:11;101310.84;;;11.31;100.00
47985;BME280;33753;52.912;-7.342;2023-02-23T10:32:45;101309.03;;;11.21;100.00
47985;BME280;33753;52.912;-7.342;2023-02-23T10:35:18;101309.06;;;11.03;100.00
47985;BME280;33753;52.912;-7.342;2023-02-23T10:37:47;101311.09;;;11.37;100.00
47985;BME280;33753;52.912;-7.342;2023-02-23T10:40:18;101313.22;;;11.52;100.00
47985;BME280;33753;52.912;-7.342;2023-02-23T10:42:51;101313.31;;;11.42;100.00
47985;BME280;33753;52.912;-7.342;2023-02-23T10:45:21;101307.41;;;10.93;100.00
47985;BME280;33753;52.912;-7.342;2023-02-23T10:47:51;101305.19;;;10.88;100.00
47985;BME280;33753;52.912;-7.342;2023-02-23T10:50:20;101312.47;;;10.60;100.00
47985;BME280;33753;52.912;-7.342;2023-02-23T10:52:53;101311.09;;;10.46;100.00
47985;BME280;33753;52.912;-7.342;2023-02-23T10:55:24;101312.97;;;10.45;100.00
47985;BME280;33753;52.912;-7.342;2023-02-23T10:58:14;101317.72;;;10.24;100.00
47985;BME280;33753;52.912;-7.342;2023-02-23T11:00:51;101318.03;;;10.20;100.00
47985;BME280;33753;52.912;-7.342;2023-02-23T11:03:24;101318.25;;;10.37;100.00
47985;BME280;33753;52.912;-7.342;2023-02-23T11:05:54;101325.06;;;10.41;100.00
47985;BME280;33753;52.912;-7.342;2023-02-23T11:08:23;101325.59;;;10.54;100.00
47985;BME280;33753;52.912;-7.342;2023-02-23T11:10:56;101321.00;;;10.65;100.00
47985;BME280;33753;52.912;-7.342;2023-02-23T11:13:27;101315.44;;;10.84;100.00
47985;BME280;33753;52.912;-7.342;2023-02-23T11:15:59;101307.03;;;11.05;100.00
47985;BME280;33753;52.912;-7.342;2023-02-23T11:18:28;101303.16;;;10.90;100.00
47985;BME280;33753;52.912;-7.342;2023-02-23T11:20:57;101309.59;;;11.07;100.00
47985;BME280;33753;52.912;-7.342;2023-02-23T11:23:26;101307.72;;;11.26;100.00
47985;BME280;33753;52.912;-7.342;2023-02-23T11:25:56;101305.25;;;11.50;100.00
47985;BME280;33753;52.912;-7.342;2023-02-23T11:28:29;101295.06;;;11.26;100.00
47985;BME280;33753;52.912;-7.342;2023-02-23T11:31:00;101287.91;;;11.43;100.00
47985;BME280;33753;52.912;-7.342;2023-02-23T11:33:30;101281.47;;;11.62;100.00
47985;BME280;33753;52.912;-7.342;2023-02-23T11:36:15;101275.75;;;11.47;100.00
47985;BME280;33753;52.912;-7.342;2023-02-23T11:38:44;101273.56;;;11.24;100.00
47985;BME280;33753;52.912;-7.342;2023-02-23T11:41:19;101264.47;;;11.16;100.00
47985;BME280;33753;52.912;-7.342;2023-02-23T11:43:49;101270.22;;;11.13;100.00
47985;BME280;33753;52.912;-7.342;2023-02-23T11:46:20;101270.56;;;11.36;100.00
47985;BME280;33753;52.912;-7.342;2023-02-23T11:48:50;101271.81;;;11.41;100.00
47985;BME280;33753;52.912;-7.342;2023-02-23T11:51:23;101271.22;;;11.74;100.00
47985;BME280;33753;52.912;-7.342;2023-02-23T11:53:52;101274.88;;;11.91;100.00
47985;BME280;33753;52.912;-7.342;2023-02-23T11:56:22;101275.56;;;12.19;100.00
47985;BME280;33753;52.912;-7.342;2023-02-23T11:58:53;101261.75;;;12.04;100.00
47985;BME280;33753;52.912;-7.342;2023-02-23T12:01:34;101258.69;;;12.34;100.00
47985;BME280;33753;52.912;-7.342;2023-02-23T12:04:05;101258.75;;;12.16;100.00
47985;BME280;33753;52.912;-7.342;2023-02-23T12:06:36;101255.75;;;12.27;100.00
47985;BME280;33753;52.912;-7.342;2023-02-23T12:09:08;101262.41;;;12.33;100.00
47985;BME280;33753;52.912;-7.342;2023-02-23T12:11:39;101261.03;;;12.28;100.00
47985;BME280;33753;52.912;-7.342;2023-02-23T12:14:16;101252.44;;;12.07;100.00
47985;BME280;33753;52.912;-7.342;2023-02-23T12:16:48;101249.59;;;11.82;100.00
47985;BME280;33753;52.912;-7.342;2023-02-23T12:19:21;101257.38;;;12.03;100.00
47985;BME280;33753;52.912;-7.342;2023-02-23T12:21:52;101247.03;;;12.07;100.00
47985;BME280;33753;52.912;-7.342;2023-02-23T12:24:27;101245.84;;;12.09;100.00
47985;BME280;33753;52.912;-7.342;2023-02-23T12:26:59;101230.75;;;12.07;100.00
47985;BME280;33753;52.912;-7.342;2023-02-23T12:29:32;101241.50;;;11.90;100.00
47985;BME280;33753;52.912;-7.342;2023-02-23T12:32:04;101233.63;;;11.53;100.00
47985;BME280;33753;52.912;-7.342;2023-02-23T12:34:35;101224.59;;;11.44;100.00
47985;BME280;33753;52.912;-7.342;2023-02-23T12:37:19;101220.56;;;11.48;100.00
47985;BME280;33753;52.912;-7.342;2023-02-23T12:39:56;101225.06;;;11.66;100.00
47985;BME280;33753;52.912;-7.342;2023-02-23T12:42:28;101217.66;;;11.68;100.00
47985;BME280;33753;52.912;-7.342;2023-02-23T12:45:04;101208.66;;;11.93;100.00
47985;BME280;33753;52.912;-7.342;2023-02-23T12:47:34;101213.53;;;11.90;100.00
47985;BME280;33753;52.912;-7.342;2023-02-23T12:50:05;101206.94;;;11.92;100.00
47985;BME280;33753;52.912;-7.342;2023-02-23T12:52:40;101206.69;;;11.78;100.00
47985;BME280;33753;52.912;-7.342;2023-02-23T12:55:11;101204.44;;;11.65;100.00
47985;BME280;33753;52.912;-7.342;2023-02-23T12:57:42;101196.91;;;11.58;100.00
47985;BME280;33753;52.912;-7.342;2023-02-23T13:03:32;101196.47;;;11.63;100.00
47985;BME280;33753;52.912;-7.342;2023-02-23T13:06:03;101194.66;;;11.72;100.00
47985;BME280;33753;52.912;-7.342;2023-02-23T13:08:38;101196.31;;;11.73;100.00
47985;BME280;33753;52.912;-7.342;2023-02-23T13:11:11;101193.03;;;11.61;100.00
47985;BME280;33753;52.912;-7.342;2023-02-23T13:13:45;101191.94;;;11.72;100.00
47985;BME280;33753;52.912;-7.342;2023-02-23T13:16:16;101196.44;;;11.37;100.00
47985;BME280;33753;52.912;-7.342;2023-02-23T13:18:50;101189.63;;;11.33;100.00
47985;BME280;33753;52.912;-7.342;2023-02-23T13:21:21;101183.06;;;11.09;100.00